Stella Niagara, NY

11:54 AM EST on December 06, 2016 (GMT -0500)
the original Riverbend Farm | | Change Station

Elev 315 ft 43.21 °N, 79.06 °W | Updated 7 minutes ago

Overcast
Overcast
42.4 °F
Feels Like 42 °F
N
3.0
Wind Variable Wind from ENE
Gusts 10.0 mph

Today
High -- | Low -- °F
--% Chance of Precip.
Yesterday
High -- | Low -- °F
Precip. -- in
Pressure 29.97 in
Visibility 10.0 miles
Clouds Few 13000 ft
Mostly Cloudy 20000 ft
Overcast 24000 ft
Windchill 42 °F
Dew Point 35 °F
Humidity 76%
Rainfall 0.00 in
Snow Depth Not available.
7:34 AM 4:40 PM
Waxing Crescent, 43% visible
METAR KIAG 061553Z 09012KT 10SM FEW130 BKN200 OVC240 04/M01 A2994 RMK AO2 PRESFR SLP148 T00441011
Pressure 29.97 in
Visibility 10.0 miles
Clouds Few 13000 ft
Mostly Cloudy 20000 ft
Overcast 24000 ft
Windchill 42 °F
Dew Point 35 °F
Humidity 76%
Rainfall 0.00 in
Snow Depth Not available.
7:34 AM 4:40 PM
Waxing Crescent, 43% visible
METAR KIAG 061553Z 09012KT 10SM FEW130 BKN200 OVC240 04/M01 A2994 RMK AO2 PRESFR SLP148 T00441011

10-Day Weather Forecast

Almanac

Astronomy

Dec. 06, 2016 Rise Set
Actual Time
Civil Twilight
Nautical Twilight
Astronomical Twilight
Moon
Length of Visible Light
Length of Day
Tomorrow will be .
, % of the Moon is Illuminated

Today's Extremes

State Highs State Lows

Community

WunderPhotos

Upload Photos

1,955,983 photos uploaded!

WunderBlog® & News

Nearby

Air Quality

  Air Quality AQ Index Pollutant
Not available.

Snow Depth

Station Depth Elevation

Earthquake Activity

City Distance Mag. Time & Date
Minimum magnitude displayed is 2.5.

Coastal Water Temperatures

Place Temperature

Stations

Nearby Weather Stations

Station Location Temp. Windchill Dew Point Humidity Wind Precip. Elev Updated Type
                   

Watches & Warnings

There are currently no watches in effect.